createdAt,value
2022-10-13T00:00:58.920Z,100965.81
2022-10-13T00:03:28.465Z,100962.91
2022-10-13T00:05:57.674Z,100964.97
2022-10-13T00:08:26.609Z,100970.41
2022-10-13T00:10:54.483Z,100972.09
2022-10-13T00:13:22.554Z,100964.97
2022-10-13T00:50:49.649Z,100965.16
2022-10-13T00:53:17.347Z,100966.69
2022-10-13T00:55:45.190Z,100959.34
2022-10-13T00:58:12.857Z,100957.50
2022-10-13T01:00:42.129Z,100962.94
2022-10-13T01:03:09.835Z,100962.06
2022-10-13T01:05:37.508Z,100965.66
2022-10-13T01:08:05.242Z,100965.66
2022-10-13T01:10:32.911Z,100964.78
2022-10-13T01:13:00.564Z,100966.69
2022-10-13T01:15:28.446Z,100959.34
2022-10-13T01:17:56.170Z,100962.06
2022-10-13T01:23:15.984Z,100969.41
2022-10-13T01:25:43.647Z,100956.81
2022-10-13T01:28:11.571Z,100955.97
2022-10-13T01:30:39.277Z,100950.69
2022-10-13T01:33:06.996Z,100951.72
2022-10-13T01:35:34.843Z,100954.44
2022-10-13T01:38:02.636Z,100956.13
2022-10-13T01:40:30.299Z,100960.72
2022-10-13T01:42:58.313Z,100956.28
2022-10-13T01:45:25.980Z,100952.72
2022-10-13T01:47:53.697Z,100950.00
2022-10-13T01:50:21.606Z,100942.00
2022-10-13T01:52:49.298Z,100940.13
2022-10-13T01:55:16.999Z,100940.13
2022-10-13T01:57:44.864Z,100929.38
2022-10-13T02:00:12.586Z,100920.19
2022-10-13T02:02:40.294Z,100922.03
2022-10-13T02:05:08.042Z,100916.59
2022-10-13T02:07:36.016Z,100908.41
2022-10-13T02:10:03.711Z,100912.19
2022-10-13T02:12:31.635Z,100911.34
2022-10-13T02:14:59.334Z,100906.72
2022-10-13T02:17:27.525Z,100906.91
2022-10-13T02:19:55.174Z,100902.31
2022-10-13T02:22:22.878Z,100902.31
2022-10-13T02:24:50.700Z,100910.50
2022-10-13T02:27:18.386Z,100897.88
2022-10-13T02:29:46.247Z,100903.31
2022-10-13T02:32:14.185Z,100897.88
2022-10-13T02:34:42.044Z,100899.91
2022-10-13T02:37:09.719Z,100898.91
2022-10-13T02:39:37.371Z,100890.72
2022-10-13T02:42:05.409Z,100893.63
2022-10-13T02:44:33.108Z,100889.00
2022-10-13T02:47:01.099Z,100898.06
2022-10-13T02:49:28.843Z,100897.19
2022-10-13T02:51:56.588Z,100894.47
2022-10-13T02:54:24.283Z,100885.63
2022-10-13T02:56:52.203Z,100893.81
2022-10-13T02:59:19.882Z,100893.81
2022-10-13T03:01:47.735Z,100900.28
2022-10-13T03:04:15.479Z,100895.84
2022-10-13T03:06:43.187Z,100894.81
2022-10-13T03:09:11.471Z,100888.53
2022-10-13T03:11:39.177Z,100888.53
2022-10-13T03:14:06.914Z,100893.13
2022-10-13T03:16:34.621Z,100895.00
2022-10-13T03:19:02.334Z,100893.28
2022-10-13T03:21:30.072Z,100891.44
2022-10-13T03:23:57.723Z,100891.44
2022-10-13T03:26:25.416Z,100886.00
2022-10-13T03:28:53.231Z,100877.97
2022-10-13T03:31:20.868Z,100876.09
2022-10-13T03:33:48.682Z,100874.41
2022-10-13T03:36:16.447Z,100870.84
2022-10-13T03:38:44.121Z,100871.69
2022-10-13T03:41:11.890Z,100865.38
2022-10-13T03:43:39.560Z,100862.81
2022-10-13T03:46:07.238Z,100860.09
2022-10-13T03:48:34.944Z,100871.84
2022-10-13T03:51:02.649Z,100879.00
2022-10-13T03:53:30.359Z,100888.03
2022-10-13T03:55:58.046Z,100882.59
2022-10-13T03:58:25.991Z,100878.81
2022-10-13T04:00:53.654Z,100874.41
2022-10-13T04:03:21.336Z,100869.97
2022-10-13T04:05:49.018Z,100868.28
2022-10-13T04:08:17.105Z,100863.66
2022-10-13T04:10:44.819Z,100854.50
2022-10-13T04:13:12.554Z,100854.66
2022-10-13T04:15:40.345Z,100853.81
2022-10-13T04:18:08.104Z,100846.47
2022-10-13T04:20:35.804Z,100847.31
2022-10-13T04:23:03.507Z,100840.19
2022-10-13T04:25:31.192Z,100850.22
2022-10-13T04:27:59.253Z,100838.66
2022-10-13T04:30:26.940Z,100841.38
2022-10-13T04:32:54.631Z,100843.06
2022-10-13T04:35:22.370Z,100846.81
2022-10-13T04:37:50.132Z,100844.78
2022-10-13T04:40:18.229Z,100840.19
2022-10-13T04:42:45.924Z,100841.03
2022-10-13T04:45:13.672Z,100842.72
2022-10-13T04:47:41.299Z,100842.91
2022-10-13T04:50:09.038Z,100831.16
2022-10-13T04:52:36.770Z,100839.34
2022-10-13T04:55:04.426Z,100842.06
2022-10-13T04:57:32.096Z,100835.94
2022-10-13T04:59:59.727Z,100832.34
2022-10-13T05:02:27.355Z,100835.94
2022-10-13T05:04:55.022Z,100830.66
2022-10-13T05:07:22.776Z,100835.25
2022-10-13T05:09:50.553Z,100827.91
2022-10-13T05:12:18.589Z,100831.69
2022-10-13T05:14:46.568Z,100831.69
2022-10-13T05:17:14.234Z,100832.53
2022-10-13T05:19:41.910Z,100835.25
2022-10-13T05:22:09.569Z,100839.00
2022-10-13T05:24:41.069Z,100840.69
2022-10-13T05:27:08.914Z,100845.31
2022-10-13T05:29:36.600Z,100845.13
2022-10-13T05:32:04.299Z,100850.56
2022-10-13T05:34:32.670Z,100859.41
2022-10-13T05:37:00.361Z,100845.78
2022-10-13T05:39:28.053Z,100850.22
2022-10-13T05:41:55.757Z,100852.97
2022-10-13T05:44:24.335Z,100856.53
2022-10-13T05:46:52.004Z,100860.25
2022-10-13T05:49:19.823Z,100861.78
2022-10-13T05:51:47.471Z,100869.13
2022-10-13T05:54:15.219Z,100862.81
2022-10-13T05:56:42.949Z,100863.66
2022-10-13T05:59:10.678Z,100864.50
2022-10-13T06:01:38.415Z,100867.44
2022-10-13T06:04:06.144Z,100864.69
2022-10-13T06:06:33.819Z,100869.31
2022-10-13T06:09:01.647Z,100871.00
2022-10-13T06:11:29.363Z,100855.50
2022-10-13T06:13:57.014Z,100855.69
2022-10-13T06:16:24.916Z,100858.22
2022-10-13T06:18:52.713Z,100860.09
2022-10-13T06:21:20.384Z,100862.81
2022-10-13T06:23:49.120Z,100856.34
2022-10-13T06:26:17.010Z,100854.50
2022-10-13T06:28:49.112Z,100867.91
2022-10-13T06:31:18.509Z,100869.63
2022-10-13T06:33:46.487Z,100860.44
2022-10-13T06:36:14.213Z,100862.13
2022-10-13T06:38:41.897Z,100853.09
2022-10-13T06:41:09.593Z,100851.22
2022-10-13T06:43:40.512Z,100851.22
2022-10-13T06:46:08.386Z,100855.66
2022-10-13T06:48:36.300Z,100854.97
2022-10-13T06:51:04.364Z,100850.38
2022-10-13T06:53:32.033Z,100848.69
2022-10-13T06:55:59.731Z,100846.78
2022-10-13T06:58:27.433Z,100841.50
2022-10-13T07:00:55.209Z,100839.81
2022-10-13T07:03:23.861Z,100843.38
2022-10-13T07:05:51.562Z,100838.78
2022-10-13T07:08:19.467Z,100833.53
2022-10-13T07:10:47.205Z,100831.81
2022-10-13T07:13:14.989Z,100830.13
2022-10-13T07:15:42.696Z,100829.44
2022-10-13T07:18:10.446Z,100837.63
2022-10-13T07:20:38.136Z,100831.16
2022-10-13T07:23:05.971Z,100833.00
2022-10-13T07:25:33.654Z,100832.16
2022-10-13T07:28:01.376Z,100828.44
2022-10-13T07:30:29.114Z,100833.19
2022-10-13T07:32:56.755Z,100829.28
2022-10-13T07:35:30.283Z,100833.88
2022-10-13T07:37:58.485Z,100828.59
2022-10-13T07:40:26.778Z,100831.31
2022-10-13T07:42:55.680Z,100831.16
2022-10-13T07:45:23.522Z,100832.84
2022-10-13T07:47:51.573Z,100825.50
2022-10-13T07:50:19.278Z,100828.44
2022-10-13T07:52:46.991Z,100829.28
2022-10-13T07:55:14.731Z,100827.56
2022-10-13T07:57:42.383Z,100826.56
2022-10-13T08:00:10.501Z,100818.38
2022-10-13T08:02:38.177Z,100825.72
2022-10-13T08:05:05.929Z,100825.88
2022-10-13T08:07:33.653Z,100826.56
2022-10-13T08:10:01.616Z,100828.44
2022-10-13T08:12:29.407Z,100821.25
2022-10-13T08:14:59.384Z,100817.53
2022-10-13T08:17:29.610Z,100821.09
2022-10-13T08:19:57.409Z,100812.94
2022-10-13T08:22:28.249Z,100812.94
2022-10-13T08:24:56.646Z,100805.75
2022-10-13T08:27:29.233Z,100808.31
2022-10-13T08:30:05.072Z,100799.47
2022-10-13T08:32:32.849Z,100793.00
2022-10-13T08:35:00.627Z,100791.97
2022-10-13T08:37:28.493Z,100784.84
2022-10-13T08:39:56.172Z,100789.25
2022-10-13T08:42:24.097Z,100782.75
2022-10-13T08:45:28.842Z,100782.75
2022-10-13T08:47:39.485Z,100786.53
2022-10-13T08:50:07.240Z,100782.75
2022-10-13T08:52:35.028Z,100779.88
2022-10-13T08:55:02.714Z,100776.31
2022-10-13T08:57:30.409Z,100768.13
2022-10-13T08:59:58.156Z,100770.84
2022-10-13T09:02:27.185Z,100765.41
2022-10-13T09:04:54.852Z,100760.78
2022-10-13T09:07:22.794Z,100766.91
2022-10-13T09:09:50.901Z,100773.38
2022-10-13T09:12:22.170Z,100778.66
2022-10-13T09:14:50.161Z,100776.97
2022-10-13T09:17:17.939Z,100773.38
2022-10-13T09:19:46.358Z,100774.06
2022-10-13T09:22:14.054Z,100765.03
2022-10-13T09:24:41.727Z,100768.44
2022-10-13T09:27:09.405Z,100771.16
2022-10-13T09:29:37.091Z,100765.88
2022-10-13T09:32:04.782Z,100765.03
2022-10-13T09:34:32.483Z,100761.28
2022-10-13T09:37:00.213Z,100765.72
2022-10-13T09:39:27.849Z,100764.84
2022-10-13T09:41:55.515Z,100767.41
2022-10-13T09:44:25.597Z,100761.28
2022-10-13T09:46:55.385Z,100763.16
2022-10-13T09:49:23.067Z,100765.72
2022-10-13T09:51:50.748Z,100755.81
2022-10-13T09:54:18.402Z,100754.81
2022-10-13T09:56:46.111Z,100758.19
2022-10-13T09:59:13.761Z,100755.31
2022-10-13T10:01:41.502Z,100758.88
2022-10-13T10:04:09.228Z,100756.13
2022-10-13T10:06:36.959Z,100761.44
2022-10-13T10:09:05.203Z,100754.25
2022-10-13T10:11:33.814Z,100754.25
2022-10-13T10:14:01.592Z,100735.38
2022-10-13T10:16:31.366Z,100745.25
2022-10-13T10:18:59.181Z,100737.06
2022-10-13T10:21:26.924Z,100747.28
2022-10-13T10:23:54.727Z,100737.44
2022-10-13T10:26:24.966Z,100734.53
2022-10-13T10:28:55.471Z,100729.94
2022-10-13T10:31:23.186Z,100739.97
2022-10-13T10:33:50.851Z,100728.22
2022-10-13T10:36:18.559Z,100723.63
2022-10-13T10:38:46.309Z,100717.97
2022-10-13T10:41:14.175Z,100721.56
2022-10-13T10:46:09.903Z,100716.97
2022-10-13T10:48:37.634Z,100715.09
2022-10-13T10:51:05.359Z,100715.09
2022-10-13T10:53:33.071Z,100707.75
2022-10-13T10:56:00.786Z,100709.66
2022-10-13T10:58:28.450Z,100705.03
2022-10-13T11:00:56.232Z,100701.47
2022-10-13T11:03:23.977Z,100704.88
2022-10-13T11:05:51.648Z,100700.25
2022-10-13T11:08:19.450Z,100691.25
2022-10-13T11:10:47.224Z,100690.38
2022-10-13T11:13:14.981Z,100684.06
2022-10-13T11:15:42.649Z,100689.72
2022-10-13T11:18:10.348Z,100692.44
2022-10-13T11:20:38.105Z,100687.84
2022-10-13T11:23:05.912Z,100692.44
2022-10-13T11:25:33.749Z,100692.44
2022-10-13T11:28:01.463Z,100683.22
2022-10-13T11:33:09.166Z,100676.94
2022-10-13T11:35:36.943Z,100672.31
2022-10-13T11:38:08.133Z,100666.88
2022-10-13T11:40:37.138Z,100669.59
2022-10-13T11:43:05.341Z,100676.09
2022-10-13T11:45:35.859Z,100670.97
2022-10-13T11:48:03.612Z,100673.38
2022-10-13T11:50:31.415Z,100664.16
2022-10-13T11:52:59.126Z,100670.66
2022-10-13T11:55:26.836Z,100677.78
2022-10-13T11:57:54.507Z,100672.31
2022-10-13T12:00:22.215Z,100663.09
2022-10-13T12:02:50.602Z,100666.19
2022-10-13T12:05:18.463Z,100666.19
2022-10-13T12:07:46.104Z,100663.47
2022-10-13T12:10:13.828Z,100654.28
2022-10-13T12:12:41.524Z,100659.75
2022-10-13T12:15:09.191Z,100650.53
2022-10-13T12:17:39.002Z,100631.44
2022-10-13T12:20:06.727Z,100639.44
2022-10-13T12:22:39.334Z,100637.56
2022-10-13T12:25:08.266Z,100632.13
2022-10-13T12:27:36.046Z,100620.38
2022-10-13T12:30:03.762Z,100607.59
2022-10-13T12:32:31.448Z,100615.25
2022-10-13T12:34:59.131Z,100617.16
2022-10-13T12:37:27.154Z,100610.69
2022-10-13T12:39:54.824Z,100608.97
2022-10-13T12:42:22.549Z,100606.25
2022-10-13T12:44:50.173Z,100615.25
2022-10-13T12:47:18.062Z,100595.53
2022-10-13T12:49:46.009Z,100601.00
2022-10-13T12:52:14.515Z,100595.53
2022-10-13T12:54:42.279Z,100598.44
2022-10-13T12:57:10.014Z,100593.81
2022-10-13T12:59:37.703Z,100591.31
2022-10-13T13:02:05.379Z,100587.69
2022-10-13T13:04:33.048Z,100587.69
2022-10-13T13:07:00.717Z,100591.31
2022-10-13T13:09:28.562Z,100593.00
2022-10-13T13:11:56.215Z,100589.22
2022-10-13T13:14:23.973Z,100590.94
2022-10-13T13:16:52.483Z,100590.09
2022-10-13T13:19:22.255Z,100589.03
2022-10-13T13:21:50.488Z,100583.75
2022-10-13T13:24:35.689Z,100584.63
2022-10-13T13:27:05.805Z,100576.25
2022-10-13T13:29:33.497Z,100589.72
2022-10-13T13:32:01.311Z,100585.28
2022-10-13T13:34:29.043Z,100577.97
2022-10-13T13:36:56.704Z,100578.81
2022-10-13T13:39:24.911Z,100576.75
2022-10-13T13:41:52.615Z,100574.88
2022-10-13T13:44:20.309Z,100569.44
2022-10-13T13:46:47.970Z,100578.06
2022-10-13T13:49:15.694Z,100567.56
2022-10-13T13:51:43.481Z,100566.78
2022-10-13T13:54:11.333Z,100562.34
2022-10-13T13:56:39.309Z,100567.19
2022-10-13T13:59:07.005Z,100559.53
2022-10-13T14:01:34.751Z,100558.06
2022-10-13T14:04:03.083Z,100564.75
2022-10-13T14:06:31.433Z,100567.41
2022-10-13T14:08:59.083Z,100556.63
2022-10-13T14:11:26.803Z,100552.47
2022-10-13T14:13:54.495Z,100546.63
2022-10-13T14:16:22.198Z,100550.16
2022-10-13T14:18:49.906Z,100549.16
2022-10-13T14:21:17.608Z,100533.28
2022-10-13T14:23:47.114Z,100540.84
2022-10-13T14:26:14.919Z,100535.69
2022-10-13T14:28:42.949Z,100532.53
2022-10-13T14:31:10.691Z,100531.75
2022-10-13T14:33:38.395Z,100539.06
2022-10-13T14:36:06.118Z,100543.31
2022-10-13T14:38:33.929Z,100531.63
2022-10-13T14:41:01.675Z,100531.09
2022-10-13T14:43:29.414Z,100533.31
2022-10-13T14:45:57.191Z,100531.16
2022-10-13T14:48:25.011Z,100537.00
2022-10-13T14:50:52.736Z,100540.44
2022-10-13T14:53:20.429Z,100528.59
2022-10-13T14:55:48.774Z,100533.03
2022-10-13T14:58:16.456Z,100531.47
2022-10-13T15:00:44.315Z,100530.25
2022-10-13T15:03:11.987Z,100536.66
2022-10-13T15:05:43.820Z,100534.81
2022-10-13T15:08:11.478Z,100531.28
2022-10-13T15:10:39.646Z,100534.00
2022-10-13T15:13:07.331Z,100533.78
2022-10-13T15:15:35.025Z,100534.84
2022-10-13T15:18:03.080Z,100540.88
2022-10-13T15:20:30.888Z,100536.66
2022-10-13T15:22:58.795Z,100534.53
2022-10-13T15:25:26.798Z,100529.00
2022-10-13T15:27:54.456Z,100539.28
2022-10-13T15:30:22.146Z,100534.78
2022-10-13T15:32:50.184Z,100538.31
2022-10-13T15:35:17.995Z,100536.78
2022-10-13T15:37:45.950Z,100537.31
2022-10-13T15:40:13.799Z,100542.97
2022-10-13T15:42:41.529Z,100533.91
2022-10-13T15:45:10.756Z,100544.13
2022-10-13T15:47:39.183Z,100536.72
2022-10-13T15:50:06.963Z,100540.31
2022-10-13T15:52:35.221Z,100538.31
2022-10-13T15:55:03.089Z,100541.44
2022-10-13T15:57:30.827Z,100530.84
2022-10-13T15:59:58.528Z,100526.25
2022-10-13T16:02:26.239Z,100530.13
2022-10-13T16:04:54.111Z,100530.19
2022-10-13T16:07:21.791Z,100538.66
2022-10-13T16:09:49.530Z,100535.25
2022-10-13T16:12:17.711Z,100551.19
2022-10-13T16:14:45.779Z,100543.25
2022-10-13T16:17:13.471Z,100545.63
2022-10-13T16:19:41.282Z,100534.84
2022-10-13T16:22:09.154Z,100538.47
2022-10-13T16:24:36.948Z,100537.78
2022-10-13T16:27:04.838Z,100541.78
2022-10-13T16:29:32.598Z,100544.25
2022-10-13T16:32:01.002Z,100538.72
2022-10-13T16:34:28.711Z,100546.25
2022-10-13T16:36:56.423Z,100543.22
2022-10-13T16:39:24.833Z,100546.06
2022-10-13T16:41:52.535Z,100556.75
2022-10-13T16:44:20.583Z,100555.63
2022-10-13T16:46:49.644Z,100560.69
2022-10-13T16:49:17.399Z,100553.44
2022-10-13T16:51:45.116Z,100556.25
2022-10-13T16:54:12.999Z,100554.38
2022-10-13T16:56:40.865Z,100556.00
2022-10-13T16:59:08.632Z,100551.53
2022-10-13T17:01:36.369Z,100553.78
2022-10-13T17:04:04.189Z,100549.50
2022-10-13T17:06:31.899Z,100552.81
2022-10-13T17:08:59.793Z,100560.34
2022-10-13T17:11:27.834Z,100553.78
2022-10-13T17:13:55.796Z,100562.00
2022-10-13T17:16:23.618Z,100563.19
2022-10-13T17:18:51.424Z,100559.16
2022-10-13T17:21:19.158Z,100556.78
2022-10-13T17:23:48.851Z,100570.16
2022-10-13T17:26:16.691Z,100561.44
2022-10-13T17:28:44.776Z,100566.28
2022-10-13T17:31:12.685Z,100573.69
2022-10-13T17:33:40.426Z,100571.25
2022-10-13T17:36:08.139Z,100572.19
2022-10-13T17:38:35.902Z,100572.84
2022-10-13T17:41:03.695Z,100567.72
2022-10-13T17:43:31.411Z,100571.22
2022-10-13T17:46:17.733Z,100573.38
2022-10-13T17:48:46.984Z,100566.16
2022-10-13T17:51:14.767Z,100570.31
2022-10-13T17:53:42.680Z,100556.72
2022-10-13T17:56:10.379Z,100554.78
2022-10-13T17:58:38.219Z,100555.25
2022-10-13T18:01:13.437Z,100551.94
2022-10-13T18:03:42.078Z,100549.41
2022-10-13T18:06:09.998Z,100547.72
2022-10-13T18:08:37.627Z,100541.38
2022-10-13T18:11:08.143Z,100553.59
2022-10-13T18:13:36.222Z,100540.06
2022-10-13T18:16:03.950Z,100540.41
2022-10-13T18:18:31.672Z,100550.06
2022-10-13T18:20:59.404Z,100545.78
2022-10-13T18:25:55.159Z,100542.44
2022-10-13T18:28:23.050Z,100546.38
2022-10-13T18:30:50.894Z,100546.09
2022-10-13T18:33:18.569Z,100549.16
2022-10-13T18:35:46.235Z,100553.13
2022-10-13T18:38:15.250Z,100557.69
2022-10-13T18:40:42.964Z,100552.91
2022-10-13T18:43:10.701Z,100566.03
2022-10-13T18:45:38.370Z,100554.47
2022-10-13T18:48:06.169Z,100554.91
2022-10-13T18:50:33.847Z,100547.91
2022-10-13T18:53:01.624Z,100552.94
2022-10-13T18:55:29.303Z,100546.03
2022-10-13T18:57:56.992Z,100547.97
2022-10-13T19:00:24.958Z,100549.84
2022-10-13T19:02:53.435Z,100543.09
2022-10-13T19:05:21.133Z,100543.94
2022-10-13T19:07:48.862Z,100540.97
2022-10-13T19:10:16.550Z,100540.88
2022-10-13T19:12:44.244Z,100538.72
2022-10-13T19:15:11.914Z,100542.69
2022-10-13T19:17:39.611Z,100546.41
2022-10-13T19:20:07.275Z,100552.00
2022-10-13T19:22:34.999Z,100542.66
2022-10-13T19:25:02.738Z,100545.09
2022-10-13T19:27:30.495Z,100541.06
2022-10-13T19:29:58.264Z,100539.94
2022-10-13T19:32:25.933Z,100541.78
2022-10-13T19:34:54.000Z,100546.19
2022-10-13T19:37:21.968Z,100541.13
2022-10-13T19:39:49.872Z,100541.09
2022-10-13T19:44:50.880Z,100541.13
2022-10-13T19:47:18.807Z,100534.97
2022-10-13T19:49:47.338Z,100536.81
2022-10-13T19:52:15.062Z,100534.00
2022-10-13T19:54:42.955Z,100533.09
2022-10-13T19:57:10.662Z,100533.22
2022-10-13T19:59:38.301Z,100527.06
2022-10-13T20:02:05.975Z,100521.13
2022-10-13T20:04:33.763Z,100526.34
2022-10-13T20:07:01.682Z,100528.16
2022-10-13T20:09:29.714Z,100527.72
2022-10-13T20:11:57.379Z,100526.56
2022-10-13T20:14:25.028Z,100521.69
2022-10-13T20:16:53.639Z,100526.66
2022-10-13T20:19:21.391Z,100532.69
2022-10-13T20:21:51.674Z,100528.66
2022-10-13T20:24:20.525Z,100525.50
2022-10-13T20:26:48.220Z,100525.22
2022-10-13T20:29:16.077Z,100524.75
2022-10-13T20:31:45.006Z,100531.44
2022-10-13T20:34:12.913Z,100524.47
2022-10-13T20:36:40.722Z,100516.66
2022-10-13T20:39:09.124Z,100514.50
2022-10-13T20:41:37.061Z,100518.28
2022-10-13T20:44:04.927Z,100517.81
2022-10-13T20:49:24.112Z,100517.72
2022-10-13T20:51:51.845Z,100528.66
2022-10-13T20:54:19.508Z,100520.34
2022-10-13T20:56:47.443Z,100521.41
2022-10-13T20:59:15.674Z,100526.03
2022-10-13T21:01:43.419Z,100528.75
2022-10-13T21:04:11.325Z,100532.50
2022-10-13T21:06:39.091Z,100523.69
2022-10-13T21:09:06.970Z,100530.16
2022-10-13T21:11:34.689Z,100521.78
2022-10-13T21:14:06.350Z,100522.81
2022-10-13T21:16:34.152Z,100525.91
2022-10-13T21:19:01.985Z,100531.19
2022-10-13T21:21:29.905Z,100525.91
2022-10-13T21:23:57.563Z,100528.84
2022-10-13T21:26:25.333Z,100530.91
2022-10-13T21:28:53.082Z,100534.69
2022-10-13T21:31:20.937Z,100535.03
2022-10-13T21:33:48.709Z,100526.22
2022-10-13T21:36:16.362Z,100528.28
2022-10-13T21:38:44.089Z,100526.56
2022-10-13T21:41:11.814Z,100533.06
2022-10-13T21:43:39.496Z,100531.53
2022-10-13T21:46:07.139Z,100537.84
2022-10-13T21:48:34.841Z,100536.16
2022-10-13T21:51:02.535Z,100531.72
2022-10-13T21:53:30.183Z,100536.31
2022-10-13T21:55:57.863Z,100531.06
2022-10-13T21:58:25.621Z,100535.88
2022-10-13T22:00:55.785Z,100531.44
2022-10-13T22:03:23.521Z,100535.19
2022-10-13T22:05:53.490Z,100529.91
2022-10-13T22:08:32.702Z,100524.47
2022-10-13T22:11:05.678Z,100531.81
2022-10-13T22:13:33.415Z,100524.66
2022-10-13T22:16:01.115Z,100519.41
2022-10-13T22:18:28.824Z,100518.56
2022-10-13T22:20:56.529Z,100513.09
2022-10-13T22:23:24.245Z,100522.31
2022-10-13T22:25:55.950Z,100506.13
2022-10-13T22:28:23.615Z,100508.69
2022-10-13T22:30:51.348Z,100503.63
2022-10-13T22:33:21.768Z,100506.50
2022-10-13T22:35:49.433Z,100512.81
2022-10-13T22:38:17.126Z,100508.56
2022-10-13T22:40:44.864Z,100507.72
2022-10-13T22:43:12.574Z,100506.91
2022-10-13T22:45:40.338Z,100506.06
2022-10-13T22:48:08.035Z,100498.88
2022-10-13T22:50:37.859Z,100497.22
2022-10-13T22:53:05.536Z,100497.38
2022-10-13T22:55:36.426Z,100491.75
2022-10-13T22:58:04.408Z,100496.53
2022-10-13T23:00:32.192Z,100495.69
2022-10-13T23:03:00.066Z,100488.53
2022-10-13T23:05:27.968Z,100484.13
2022-10-13T23:07:56.148Z,100491.47
2022-10-13T23:10:23.953Z,100487.91
2022-10-13T23:12:51.627Z,100487.03
2022-10-13T23:15:19.286Z,100483.28
2022-10-13T23:17:46.984Z,100481.56
2022-10-13T23:20:14.665Z,100478.84
2022-10-13T23:22:44.513Z,100484.50
2022-10-13T23:25:12.188Z,100479.06
2022-10-13T23:27:39.898Z,100477.16
2022-10-13T23:30:07.671Z,100475.47
2022-10-13T23:32:35.369Z,100475.66
2022-10-13T23:35:03.064Z,100478.38
2022-10-13T23:37:30.691Z,100475.66
2022-10-13T23:39:58.364Z,100474.81
2022-10-13T23:42:26.063Z,100478.56
2022-10-13T23:44:53.723Z,100476.69
2022-10-13T23:47:21.730Z,100475.00
2022-10-13T23:49:49.701Z,100471.44
2022-10-13T23:52:19.909Z,100475.00
2022-10-13T23:54:50.431Z,100476.03
2022-10-13T23:57:20.721Z,100472.47
2022-10-13T23:59:48.795Z,100474.31
